Архив погоды в Назрани

Метеограмма Назрань
Пятница, 19 Октября
Время местн. Темп Ветер Видим Явления Облачность нижн/средн/верх Атм. давл. Влжн Точка росы ВНГО R Сост. почвы Tg s
Напр Скр Прв ур.ст ур.м изм
00:00 +9.4° штиль 0 - 10 км - ясно 709 767 +0.1 80% +6.2° более 2.5 км - - - -
Четверг, 18 Октября
Время местн. Темп Ветер Видим Явления Облачность нижн/средн/верх Атм. давл. Влжн Точка росы ВНГО R Сост. почвы Tg s
Напр Скр Прв ур.ст ур.м изм
21:00 +12.8° Ю-З 1 - 10 км - ясно 709 766 +0.2 78% +9° более 2.5 км - - - -
18:00 +13.8° С 1 - 10 км - ясно 709 765 +0.1 77% +9.9° более 2.5 км - - - -
15:00 +17.6° С,С-В 1 - 20 км - ясно 708 765 -0.3 63% +10.5° более 2.5 км - - - -
12:00 +18.2° С,С-В 1 - 10 км - ясно 709 765 -0.7 57% +9.5° более 2.5 км - - - -
09:00 +13° штиль 0 - 10 км - ясно 709 767 +0.5 73% +8.2° более 2.5 км - - - -
06:00 +8.2° В 1 - 10 км - ясно 709 768 0 89% +6.5° более 2.5 км - Сухая (без трещин) - -
03:00 +8.9° штиль 0 - 10 км - ясно 710 768 -0.4 80% +5.6° более 2.5 км - - - -
00:00 +11° штиль 0 - 10 км - ясно 710 768 +0.2 78% +7.3° более 2.5 км - - - -
Среда, 17 Октября
Время местн. Темп Ветер Видим Явления Облачность нижн/средн/верх Атм. давл. Влжн Точка росы ВНГО R Сост. почвы Tg s
Напр Скр Прв ур.ст ур.м изм
21:00 +12.4° С,С-В 1 - 20 км - ясно 710 768 +15.2 76% +8.2° более 2.5 км - - - -
18:00 +13.2° С,С-В 1 - 20 км - ясно 710 768 -0.1 75% +8.8° более 2.5 км - - - -
15:00 +19.2° С,С-В 1 - 20 км - ясно 710 766 -0.1 49% +8.2° более 2.5 км - - - -
12:00 +21° С,С-В 1 - 20 км - ясно 710 766 -1 32% +3.5° более 2.5 км - - - -
09:00 +14° В,Ю-В 2 - 20 км - ясно 711 769 -0.2 69% +8.4° более 2.5 км - - - -
06:00 +6° В,Ю-В 2 - 10 км - ясно 711 771 -1.2 74% +1.8° более 2.5 км - Влажная (без луж) - -
03:00 +8° Ю 2 - 10 км - ясно 712 772 +0.2 70% +2.8° более 2.5 км - - - -
00:00 +9.9° В,Ю-В 2 - 10 км - ясно 712 771 +0.3 66% +3.8° более 2.5 км - - - -
Вторник, 16 Октября
Время местн. Темп Ветер Видим Явления Облачность нижн/средн/верх Атм. давл. Влжн Точка росы ВНГО R Сост. почвы Tg s
Напр Скр Прв ур.ст ур.м изм
21:00 +13° Ю 2 - 10 км - ясно 712 770 +0.2 65% +6.5° более 2.5 км - - - -
18:00 +15.4° В,Ю-В 2 - 10 км - ясно 712 769 0 60% +7.6° более 2.5 км - - - -
15:00 +17° Ю 2 - 20 км - ясно 712 769 -1.4 47% +5.7° более 2.5 км - - - -
12:00 +14.4° В,Ю-В 2 - 20 км - ясно 713 771 +0.5 59% +6.6° более 2.5 км - - - -
09:00 +11.4° В,Ю-В 2 - 20 км - ясно 712 771 +0.2 70% +6.1° более 2.5 км - - - -
06:00 +6.6° Ю 2 - 10 км - облачно 712 772 +0.2 81% +3.5° - - Влажная (без луж) - -
03:00 +7° Ю 2 - 10 км - облачно 712 771 -0.8 79% +3.7° - - - - -
00:00 +10° Ю-В 2 - 10 км - облачно 713 772 +0.2 74% +5.6° - - - - -
Понедельник, 15 Октября
Время местн. Темп Ветер Видим Явления Облачность нижн/средн/верх Атм. давл. Влжн Точка росы ВНГО R Сост. почвы Tg s
Напр Скр Прв ур.ст ур.м изм
21:00 +13° В,Ю-В 2 - 10 км - облачно с прояснениями 713 771 +0.8 70% +7.7° - - - - -